Time;durP1;ratioP1;P1;durP2;ratioP2;P2;SDS_P1;SDS_P2;PMS_P1;PMS_P2;Temp;Humidity;BMP_temperature;BMP_pressure;BME280_temperature;BME280_humidity;BME280_pressure;Samples;Min_cycle;Max_cycle;Signal;HPM_P1;HPM_P2
2022/05/03 00:01:37;;;;;;;1.73;1.50;;;10.40;60.30;;;;;;5092285;28;20051;-38
2022/05/03 00:04:12;;;;;;;1.92;1.73;;;10.40;60.50;;;;;;5092064;28;20361;-37
2022/05/03 00:06:47;;;;;;;3.13;1.70;;;10.30;60.70;;;;;;5091894;28;20020;-38
2022/05/03 00:09:22;;;;;;;2.53;1.77;;;10.30;61.00;;;;;;5091896;28;20061;-38
2022/05/03 00:11:59;;;;;;;3.80;1.95;;;10.30;61.00;;;;;;5092123;28;20360;-37
2022/05/03 00:14:43;;;;;;;1.98;1.77;;;10.30;61.10;;;;;;5092085;28;20099;-37
2022/05/03 00:17:10;;;;;;;2.13;1.60;;;10.20;61.20;;;;;;5091948;28;20051;-37
2022/05/03 00:19:36;;;;;;;4.13;1.77;;;10.20;61.10;;;;;;5091893;28;20094;-38
2022/05/03 00:22:02;;;;;;;3.03;1.80;;;10.30;61.20;;;;;;5091610;28;20452;-36
2022/05/03 00:24:29;;;;;;;2.35;1.70;;;10.20;61.40;;;;;;5091718;28;20038;-38
2022/05/03 00:26:55;;;;;;;2.22;2.00;;;10.20;61.40;;;;;;5091843;28;20379;-39
2022/05/03 00:29:21;;;;;;;1.90;1.70;;;10.20;61.60;;;;;;5091871;28;20016;-37
2022/05/03 00:31:47;;;;;;;2.08;1.50;;;10.20;61.70;;;;;;5091643;28;20077;-37
2022/05/03 00:34:13;;;;;;;2.50;1.85;;;10.20;62.00;;;;;;5091567;28;20025;-38
2022/05/03 00:36:39;;;;;;;3.00;1.92;;;10.20;62.00;;;;;;5091622;28;20028;-37
2022/05/03 00:39:04;;;;;;;2.05;1.83;;;10.10;62.00;;;;;;5091537;28;20019;-38
2022/05/03 00:41:55;;;;;;;3.10;2.22;;;10.10;62.20;;;;;;5094518;28;20016;-37
2022/05/03 00:47:23;;;;;;;2.10;1.77;;;10.00;62.50;;;;;;5095411;28;20109;-37
2022/05/03 00:49:57;;;;;;;2.65;1.98;;;10.00;62.40;;;;;;5094944;28;20493;-36
2022/05/03 00:52:42;;;;;;;2.17;1.55;;;10.00;62.60;;;;;;5094931;28;20058;-38
2022/05/03 00:55:16;;;;;;;4.57;1.70;;;10.00;62.80;;;;;;5093554;28;20030;-37
2022/05/03 00:57:58;;;;;;;5.68;2.15;;;9.90;62.90;;;;;;5094819;28;20461;-38
2022/05/03 01:00:25;;;;;;;2.25;2.05;;;9.90;63.10;;;;;;5094905;28;20020;-37
2022/05/03 01:02:57;;;;;;;2.08;1.80;;;9.90;63.30;;;;;;5094792;28;20028;-37
2022/05/03 01:05:27;;;;;;;3.60;2.30;;;9.90;63.50;;;;;;5094710;28;20021;-36
2022/05/03 01:08:04;;;;;;;4.38;2.30;;;9.90;63.60;;;;;;5094588;28;20020;-36
2022/05/03 01:11:18;;;;;;;2.35;2.10;;;9.80;63.90;;;;;;5094847;28;20038;-36
2022/05/03 01:14:14;;;;;;;4.50;2.05;;;9.80;63.90;;;;;;5049796;28;20360;-36
2022/05/03 01:16:53;;;;;;;3.13;2.10;;;9.80;63.80;;;;;;5094521;28;20043;-38
2022/05/03 01:19:48;;;;;;;3.55;1.90;;;9.80;63.90;;;;;;5094505;28;20036;-36
2022/05/03 01:22:31;;;;;;;3.10;2.30;;;9.70;63.90;;;;;;5094488;28;20075;-37
2022/05/03 01:24:57;;;;;;;3.40;2.00;;;9.70;64.10;;;;;;5094196;28;20098;-38
2022/05/03 01:27:51;;;;;;;2.97;2.47;;;9.70;64.20;;;;;;5094282;28;20044;-38
2022/05/03 01:30:16;;;;;;;2.10;1.90;;;9.70;64.30;;;;;;5094281;28;20030;-37
2022/05/03 01:32:44;;;;;;;3.13;2.10;;;9.70;64.40;;;;;;5094093;28;20107;-36
2022/05/03 01:35:13;;;;;;;2.70;2.20;;;9.60;64.40;;;;;;5094394;28;20034;-38
2022/05/03 01:38:05;;;;;;;2.40;2.17;;;9.60;64.50;;;;;;5094148;28;20467;-38
2022/05/03 01:40:43;;;;;;;3.03;2.40;;;9.60;64.70;;;;;;5093917;28;20078;-38
2022/05/03 01:43:26;;;;;;;2.92;2.40;;;9.60;64.80;;;;;;5093861;28;20013;-37
2022/05/03 01:46:24;;;;;;;4.13;2.30;;;9.50;65.00;;;;;;5092650;28;20329;-38
2022/05/03 01:52:14;;;;;;;3.85;2.63;;;9.50;65.40;;;;;;5093138;28;20463;-37
2022/05/03 01:54:59;;;;;;;3.72;2.75;;;9.50;65.80;;;;;;5093922;28;20024;-37
2022/05/03 01:57:40;;;;;;;3.95;2.80;;;9.50;65.80;;;;;;5093628;28;20066;-37
2022/05/03 02:00:11;;;;;;;3.88;3.05;;;9.40;65.70;;;;;;5092248;28;20024;-40
2022/05/03 02:02:58;;;;;;;4.13;3.10;;;9.50;65.60;;;;;;5093752;28;20474;-36
2022/05/03 02:05:53;;;;;;;3.55;2.83;;;9.50;65.80;;;;;;5093694;28;20036;-38
2022/05/03 02:08:21;;;;;;;4.90;3.03;;;9.50;65.70;;;;;;5093857;28;20027;-37
2022/05/03 02:11:14;;;;;;;4.07;2.75;;;9.50;65.50;;;;;;5093862;28;20046;-37
2022/05/03 02:16:52;;;;;;;3.33;2.50;;;9.60;65.40;;;;;;5094058;28;20158;-38
2022/05/03 02:19:23;;;;;;;;;;;9.60;65.30;;;;;;5094225;28;20475;-36
2022/05/03 02:22:09;;;;;;;5.05;2.70;;;9.60;65.10;;;;;;5093632;28;19908;-51
2022/05/03 02:24:45;;;;;;;4.53;2.60;;;9.60;65.10;;;;;;5041941;28;20032;-37
2022/05/03 02:27:11;;;;;;;5.10;3.20;;;9.60;64.90;;;;;;5093663;28;20039;-38
2022/05/03 02:29:48;;;;;;;4.10;3.10;;;9.70;64.90;;;;;;5093304;28;20031;-39
2022/05/03 02:32:24;;;;;;;3.45;2.50;;;9.70;64.90;;;;;;5093329;28;20028;-37
2022/05/03 02:35:13;;;;;;;4.80;3.42;;;9.70;64.80;;;;;;5092967;28;20103;-37
2022/05/03 02:37:47;;;;;;;4.93;2.90;;;9.70;65.00;;;;;;5091578;28;20031;-38
2022/05/03 02:40:17;;;;;;;4.00;2.85;;;9.60;65.10;;;;;;5093038;28;20016;-39
2022/05/03 02:42:43;;;;;;;4.53;2.90;;;9.60;65.20;;;;;;5093018;28;20024;-36
2022/05/03 02:45:09;;;;;;;3.30;2.70;;;9.50;65.30;;;;;;5092971;28;20030;-44
2022/05/03 02:47:58;;;;;;;4.05;2.80;;;9.50;65.40;;;;;;5092741;28;20479;-36
2022/05/03 02:50:53;;;;;;;3.58;2.70;;;9.50;65.60;;;;;;5091413;28;20028;-38
2022/05/03 02:53:46;;;;;;;3.05;2.33;;;9.40;65.70;;;;;;5092954;28;20505;-38
2022/05/03 02:56:12;;;;;;;4.13;2.90;;;9.40;65.90;;;;;;5093006;28;20052;-37
2022/05/03 02:58:51;;;;;;;3.72;2.70;;;9.40;66.60;;;;;;5092464;28;20055;-36
2022/05/03 03:04:34;;;;;;;5.05;2.97;;;9.30;66.10;;;;;;5091753;28;20051;-36
2022/05/03 03:07:00;;;;;;;3.90;2.67;;;9.30;66.10;;;;;;5091056;28;20078;-37
2022/05/03 03:10:12;;;;;;;4.13;3.35;;;9.30;66.20;;;;;;5092497;28;20128;-36
2022/05/03 03:12:51;;;;;;;5.05;3.20;;;9.30;66.30;;;;;;5010265;28;20097;-41
2022/05/03 03:15:25;;;;;;;4.30;3.20;;;9.30;66.40;;;;;;5010301;28;20034;-36
2022/05/03 03:17:51;;;;;;;4.93;2.72;;;9.30;66.50;;;;;;5062333;28;20568;-38
2022/05/03 03:20:27;;;;;;;4.93;3.20;;;9.30;66.50;;;;;;5092812;28;20044;-36
2022/05/03 03:22:53;;;;;;;4.22;3.20;;;9.30;66.60;;;;;;5092199;28;20024;-39
2022/05/03 03:25:20;;;;;;;4.53;3.22;;;9.30;66.60;;;;;;5092463;28;20108;-36
2022/05/03 03:27:48;;;;;;;5.03;3.35;;;9.30;66.60;;;;;;5092242;28;20032;-36
2022/05/03 03:30:16;;;;;;;4.03;2.83;;;9.30;67.20;;;;;;5092736;28;20022;-36
2022/05/03 03:32:46;;;;;;;4.93;2.95;;;9.30;66.50;;;;;;5092232;28;20095;-36
2022/05/03 03:35:14;;;;;;;4.57;3.13;;;9.40;66.50;;;;;;5092183;28;20038;-37
2022/05/03 03:37:45;;;;;;;4.88;3.20;;;9.40;66.40;;;;;;5092215;28;20025;-36
2022/05/03 03:40:13;;;;;;;4.38;3.08;;;9.40;66.40;;;;;;5092026;28;20243;-36
2022/05/03 03:42:40;;;;;;;5.78;3.30;;;9.40;66.30;;;;;;5092392;28;20055;-37
2022/05/03 03:45:07;;;;;;;5.20;3.00;;;9.40;66.30;;;;;;5091894;28;20136;-37
2022/05/03 03:47:34;;;;;;;4.15;2.80;;;9.40;66.30;;;;;;5092401;28;20028;-38
2022/05/03 03:50:00;;;;;;;3.53;2.50;;;9.50;66.30;;;;;;5092012;28;20031;-37
2022/05/03 03:52:26;;;;;;;3.70;2.67;;;9.50;66.30;;;;;;5092566;28;20024;-37
2022/05/03 03:54:53;;;;;;;5.25;2.95;;;9.50;66.30;;;;;;5092596;28;20020;-37
2022/05/03 03:57:21;;;;;;;4.70;2.55;;;9.40;66.30;;;;;;5092274;28;20048;-37
2022/05/03 03:59:47;;;;;;;5.45;2.63;;;9.40;66.30;;;;;;5092233;28;20043;-37
2022/05/03 04:02:14;;;;;;;3.20;2.83;;;9.40;66.30;;;;;;5092250;28;20028;-37
2022/05/03 04:04:41;;;;;;;3.95;3.00;;;9.40;66.30;;;;;;5092462;28;20047;-38
2022/05/03 04:07:07;;;;;;;4.85;3.05;;;9.40;66.40;;;;;;5091882;28;20028;-38
2022/05/03 04:09:33;;;;;;;4.63;2.95;;;9.30;66.40;;;;;;5091942;28;20144;-38
2022/05/03 04:12:01;;;;;;;4.18;3.00;;;9.30;66.50;;;;;;5091802;28;20105;-42
2022/05/03 04:14:27;;;;;;;4.40;3.38;;;9.30;66.50;;;;;;5091743;28;20035;-37
2022/05/03 04:16:53;;;;;;;5.72;3.58;;;9.30;66.60;;;;;;5095571;28;20016;-37
2022/05/03 04:19:18;;;;;;;4.72;3.33;;;9.30;66.60;;;;;;5095840;28;20409;-37
2022/05/03 04:21:46;;;;;;;4.32;3.17;;;9.30;66.60;;;;;;5095519;28;20047;-37
2022/05/03 04:24:12;;;;;;;6.47;3.80;;;9.30;66.70;;;;;;5094272;28;20024;-37
2022/05/03 04:26:37;;;;;;;5.03;3.47;;;9.30;67.40;;;;;;5095530;28;20396;-37
2022/05/03 04:29:03;;;;;;;5.05;3.47;;;9.30;66.80;;;;;;5095790;28;20028;-37
2022/05/03 04:31:32;;;;;;;5.10;3.10;;;9.30;66.80;;;;;;5095345;28;20032;-38
2022/05/03 04:33:58;;;;;;;5.85;4.05;;;9.30;66.90;;;;;;5095581;28;20543;-38
2022/05/03 04:36:27;;;;;;;4.90;3.20;;;9.30;66.90;;;;;;5095742;28;20024;-38
2022/05/03 04:38:53;;;;;;;4.88;3.38;;;9.30;66.90;;;;;;5095321;28;20035;-37
2022/05/03 04:41:24;;;;;;;3.90;3.15;;;9.30;66.90;;;;;;5095264;28;20443;-37
2022/05/03 04:43:50;;;;;;;6.65;3.45;;;9.30;67.00;;;;;;5095405;28;20048;-37
2022/05/03 04:46:16;;;;;;;6.13;3.33;;;9.20;67.10;;;;;;5095169;28;20016;-38
2022/05/03 04:48:42;;;;;;;5.65;3.50;;;9.20;67.30;;;;;;5095103;28;20105;-38
2022/05/03 04:51:23;;;;;;;5.68;3.70;;;9.10;67.40;;;;;;5093639;28;20031;-38
2022/05/03 04:53:49;;;;;;;5.55;3.50;;;8.90;67.60;;;;;;5095377;28;20459;-44
2022/05/03 04:56:17;;;;;;;4.35;3.30;;;8.90;67.80;;;;;;5094985;28;20039;-45
2022/05/03 04:58:42;;;;;;;4.60;3.33;;;8.80;68.10;;;;;;5094595;28;20056;-43
2022/05/03 05:01:08;;;;;;;5.28;3.70;;;8.70;68.30;;;;;;5094947;28;20058;-46
2022/05/03 05:03:34;;;;;;;4.50;3.00;;;8.70;68.40;;;;;;5094688;28;20063;-38
2022/05/03 05:05:59;;;;;;;4.97;3.30;;;8.70;68.40;;;;;;5094644;28;20028;-37
2022/05/03 05:08:25;;;;;;;5.80;3.42;;;8.70;68.50;;;;;;5094811;28;20032;-37
2022/05/03 05:10:50;;;;;;;4.90;3.08;;;8.70;68.60;;;;;;5094632;28;20103;-36
2022/05/03 05:13:16;;;;;;;6.15;3.63;;;8.60;68.60;;;;;;5094892;28;20053;-37
2022/05/03 05:15:41;;;;;;;4.13;3.10;;;8.70;68.80;;;;;;5094942;28;20485;-37
2022/05/03 05:18:07;;;;;;;4.65;3.38;;;8.70;68.70;;;;;;5094714;28;20101;-37
2022/05/03 05:20:34;;;;;;;4.30;3.10;;;8.80;68.70;;;;;;5094758;28;20036;-38
2022/05/03 05:22:59;;;;;;;5.22;3.22;;;8.80;68.70;;;;;;5094433;28;20027;-37
2022/05/03 05:25:25;;;;;;;4.50;3.35;;;8.90;68.70;;;;;;5094417;28;20364;-37
2022/05/03 05:27:51;;;;;;;3.88;3.25;;;9.00;68.60;;;;;;5093522;28;20036;-37
2022/05/03 05:30:16;;;;;;;4.60;3.08;;;9.10;68.50;;;;;;5094587;28;20078;-38
2022/05/03 05:32:42;;;;;;;3.80;3.30;;;9.20;68.50;;;;;;5094347;28;20115;-38
2022/05/03 05:35:08;;;;;;;4.43;3.00;;;9.30;68.30;;;;;;5094121;28;20028;-38
2022/05/03 05:37:33;;;;;;;4.20;3.08;;;9.40;68.20;;;;;;5094344;28;20151;-37
2022/05/03 05:39:59;;;;;;;3.80;2.70;;;9.50;68.00;;;;;;5094239;28;20499;-38
2022/05/03 05:42:28;;;;;;;5.03;2.70;;;9.50;67.70;;;;;;5093997;28;20059;-37
2022/05/03 05:44:53;;;;;;;4.40;2.42;;;9.60;67.20;;;;;;5093759;28;20085;-37
2022/05/03 05:47:19;;;;;;;3.72;2.45;;;9.60;66.30;;;;;;5094162;28;20471;-36
2022/05/03 05:49:45;;;;;;;2.95;2.45;;;9.70;65.90;;;;;;5093761;28;20446;-36
2022/05/03 05:54:55;;;;;;;3.15;2.22;;;9.80;65.00;;;;;;5093733;28;20097;-37
2022/05/03 05:57:20;;;;;;;2.42;1.80;;;9.90;64.50;;;;;;5093574;28;20040;-37
2022/05/03 05:59:46;;;;;;;5.40;2.03;;;9.90;63.80;;;;;;5093802;28;20106;-37
2022/05/03 06:02:12;;;;;;;2.55;1.98;;;10.00;63.40;;;;;;5094201;28;20020;-36
2022/05/03 06:04:37;;;;;;;3.78;2.00;;;10.00;62.90;;;;;;5093807;28;20520;-41
2022/05/03 06:07:03;;;;;;;2.45;1.60;;;10.10;62.60;;;;;;5094047;28;20032;-37
2022/05/03 06:09:29;;;;;;;2.47;1.73;;;10.20;62.40;;;;;;5093693;28;20036;-38
2022/05/03 06:11:54;;;;;;;1.90;1.45;;;10.30;62.10;;;;;;5093535;28;20363;-37
2022/05/03 06:14:20;;;;;;;2.28;1.60;;;10.30;61.80;;;;;;5093417;28;20058;-43
2022/05/03 06:16:55;;;;;;;1.60;1.50;;;10.40;61.20;;;;;;5093323;28;20035;-37
2022/05/03 06:19:21;;;;;;;1.85;1.23;;;10.50;60.00;;;;;;5093199;28;20035;-36
2022/05/03 06:21:47;;;;;;;2.28;1.17;;;10.50;59.50;;;;;;5093141;28;20048;-36
2022/05/03 06:24:13;;;;;;;1.10;1.00;;;10.60;59.30;;;;;;5093211;28;20038;-50
2022/05/03 06:26:39;;;;;;;2.00;1.35;;;10.70;58.90;;;;;;5093096;28;20023;-36
2022/05/03 06:29:06;;;;;;;1.05;0.95;;;10.80;58.30;;;;;;5093111;28;20416;-38
2022/05/03 06:31:36;;;;;;;1.02;0.73;;;10.90;57.20;;;;;;5093147;28;20077;-36
2022/05/03 06:34:03;;;;;;;1.42;1.20;;;10.90;56.90;;;;;;5093106;28;20072;-37
2022/05/03 06:36:28;;;;;;;1.42;0.98;;;11.00;57.00;;;;;;5093074;28;20130;-36
2022/05/03 06:38:54;;;;;;;1.50;1.00;;;11.00;56.70;;;;;;5092897;28;20028;-40
2022/05/03 06:41:20;;;;;;;1.58;0.93;;;11.10;56.40;;;;;;5093204;28;20024;-36
2022/05/03 06:43:46;;;;;;;1.50;1.10;;;11.20;55.70;;;;;;5092811;28;20028;-36
2022/05/03 06:46:11;;;;;;;2.17;1.40;;;11.20;55.90;;;;;;5092866;28;20054;-38
2022/05/03 06:48:37;;;;;;;1.70;1.23;;;11.30;56.00;;;;;;5093167;28;20393;-37
2022/05/03 06:51:05;;;;;;;1.75;1.30;;;11.40;56.10;;;;;;5092794;28;20032;-38
2022/05/03 06:53:30;;;;;;;4.22;1.83;;;11.40;56.10;;;;;;5093191;28;20032;-38
2022/05/03 06:55:56;;;;;;;1.83;1.30;;;11.50;56.20;;;;;;5092579;28;20030;-38
2022/05/03 06:58:22;;;;;;;2.20;1.65;;;11.60;56.20;;;;;;5092637;28;20119;-38
2022/05/03 07:00:47;;;;;;;3.17;1.77;;;11.60;56.30;;;;;;5092542;28;20024;-37
2022/05/03 07:03:13;;;;;;;2.58;1.70;;;11.60;56.50;;;;;;5092449;28;20099;-38
2022/05/03 07:05:40;;;;;;;1.73;1.63;;;11.70;56.60;;;;;;5092441;28;20028;-42
2022/05/03 07:08:08;;;;;;;2.10;1.65;;;11.80;56.90;;;;;;5092566;28;20087;-43
2022/05/03 07:10:34;;;;;;;2.05;1.75;;;11.80;56.60;;;;;;5092571;28;20080;-42
2022/05/03 07:12:59;;;;;;;3.00;2.28;;;11.80;56.70;;;;;;5092349;28;20032;-36
2022/05/03 07:15:27;;;;;;;3.42;2.17;;;11.90;56.90;;;;;;5092474;28;20537;-38
2022/05/03 07:23:21;;;;;;;3.20;2.60;;;12.00;57.00;;;;;;5092775;28;20097;-38
2022/05/03 07:25:47;;;;;;;3.30;2.60;;;12.10;57.20;;;;;;5092540;28;20020;-37
2022/05/03 07:28:12;;;;;;;2.92;2.42;;;12.10;57.20;;;;;;5092570;28;20067;-38
2022/05/03 07:30:38;;;;;;;4.00;2.80;;;12.20;57.30;;;;;;5092661;28;20028;-37
2022/05/03 07:33:04;;;;;;;4.68;2.75;;;12.30;57.40;;;;;;5092522;28;20385;-38
2022/05/03 07:35:30;;;;;;;3.35;2.83;;;12.30;57.60;;;;;;5092232;28;20499;-38
2022/05/03 07:37:56;;;;;;;4.93;3.40;;;12.30;57.60;;;;;;5092539;28;20398;-37
2022/05/03 07:40:22;;;;;;;5.88;2.75;;;12.40;57.60;;;;;;5092938;28;20024;-38
2022/05/03 07:42:48;;;;;;;3.55;2.80;;;12.50;57.60;;;;;;5092204;28;20391;-38
2022/05/03 07:45:15;;;;;;;3.50;2.45;;;12.50;57.50;;;;;;5092397;28;20111;-39
2022/05/03 07:47:41;;;;;;;3.10;2.78;;;12.60;57.50;;;;;;5092410;28;20110;-39
2022/05/03 07:50:07;;;;;;;4.28;2.78;;;12.70;57.60;;;;;;5091531;28;20072;-38
2022/05/03 07:52:34;;;;;;;3.58;2.90;;;12.80;57.60;;;;;;5096287;28;20510;-37
2022/05/03 07:55:02;;;;;;;4.25;2.72;;;12.80;57.50;;;;;;5096227;28;20047;-36
2022/05/03 07:57:27;;;;;;;3.92;2.97;;;12.90;57.50;;;;;;5096219;28;20047;-37
2022/05/03 07:59:54;;;;;;;5.45;3.10;;;13.00;57.60;;;;;;5094798;28;20020;-38
2022/05/03 08:02:22;;;;;;;3.20;2.85;;;13.10;57.60;;;;;;5096429;28;20066;-38
2022/05/03 08:04:48;;;;;;;4.65;3.20;;;13.10;57.60;;;;;;5096014;28;20081;-42
2022/05/03 08:07:14;;;;;;;4.63;2.80;;;13.10;57.50;;;;;;5096084;28;20138;-38
2022/05/03 08:09:40;;;;;;;4.57;2.67;;;13.20;57.50;;;;;;5096092;28;20463;-39
2022/05/03 08:12:06;;;;;;;4.93;3.30;;;13.30;57.50;;;;;;5096341;28;20031;-36
2022/05/03 08:14:32;;;;;;;5.70;3.13;;;13.40;57.60;;;;;;5096120;28;20507;-38
2022/05/03 08:16:58;;;;;;;3.08;2.78;;;13.50;57.50;;;;;;5096175;28;20028;-38
2022/05/03 08:19:24;;;;;;;4.38;2.75;;;13.60;57.50;;;;;;5095963;28;20114;-37
2022/05/03 08:21:52;;;;;;;3.72;3.00;;;13.70;57.40;;;;;;5095466;28;20039;-37
2022/05/03 08:24:19;;;;;;;4.15;2.92;;;13.80;57.30;;;;;;5095677;28;20108;-38
2022/05/03 08:26:44;;;;;;;6.00;3.10;;;13.90;57.30;;;;;;5095596;28;20028;-36
2022/05/03 08:29:10;;;;;;;4.18;3.20;;;14.00;57.20;;;;;;5095612;28;20016;-38
2022/05/03 08:31:35;;;;;;;5.05;3.10;;;14.10;57.20;;;;;;5095882;28;20104;-38
2022/05/03 08:34:04;;;;;;;3.42;3.00;;;14.10;57.10;;;;;;5095596;28;20081;-38
2022/05/03 08:36:30;;;;;;;4.82;3.00;;;14.20;57.20;;;;;;5095934;28;20467;-38
2022/05/03 08:44:09;;;;;;;4.00;3.53;;;14.50;57.10;;;;;;5095109;28;20054;-38
2022/05/03 08:46:36;;;;;;;5.38;3.38;;;14.60;57.10;;;;;;5095192;28;20024;-37
2022/05/03 08:49:04;;;;;;;5.50;4.07;;;14.60;57.10;;;;;;5095383;28;20356;-38
2022/05/03 08:51:32;;;;;;;7.05;4.57;;;14.70;57.10;;;;;;5094899;28;20016;-39
2022/05/03 08:54:01;;;;;;;4.93;3.38;;;14.80;57.00;;;;;;5094778;28;20073;-38
2022/05/03 08:56:28;;;;;;;5.97;3.35;;;14.80;57.00;;;;;;5094701;28;20127;-38
2022/05/03 08:58:55;;;;;;;6.20;3.50;;;14.90;57.00;;;;;;5095081;28;20032;-38
2022/05/03 09:01:20;;;;;;;4.22;3.28;;;15.10;57.00;;;;;;5093600;28;20115;-38
2022/05/03 09:03:46;;;;;;;4.05;3.20;;;15.10;56.70;;;;;;5094556;28;20104;-37
2022/05/03 09:06:12;;;;;;;4.13;2.97;;;15.20;56.70;;;;;;5093207;28;20042;-38
2022/05/03 09:08:39;;;;;;;3.97;3.58;;;15.20;56.70;;;;;;5094634;28;20153;-38
2022/05/03 09:11:15;;;;;;;4.95;3.65;;;15.30;56.60;;;;;;5094909;28;20439;-38
2022/05/03 09:13:43;;;;;;;5.88;3.78;;;15.40;56.40;;;;;;5094630;28;20428;-38
2022/05/03 09:16:17;;;;;;;3.60;3.30;;;15.40;56.30;;;;;;5094861;28;20114;-38
2022/05/03 09:18:47;;;;;;;3.60;3.10;;;15.50;56.30;;;;;;5094170;28;20043;-38
2022/05/03 09:24:09;;;;;;;5.82;3.45;;;15.70;56.20;;;;;;5094532;28;20036;-38
2022/05/03 09:26:34;;;;;;;3.42;3.10;;;15.90;56.00;;;;;;5094387;28;20043;-38
2022/05/03 09:29:08;;;;;;;6.25;2.78;;;16.00;55.90;;;;;;5094603;28;20044;-37
2022/05/03 09:31:47;;;;;;;2.75;2.47;;;16.00;55.90;;;;;;5094714;28;20401;-45
2022/05/03 09:34:27;;;;;;;4.28;2.67;;;16.10;55.90;;;;;;5094518;28;20399;-39
2022/05/03 09:37:05;;;;;;;3.70;2.40;;;16.10;55.90;;;;;;5094311;28;20024;-37
2022/05/03 09:39:37;;;;;;;3.42;2.75;;;16.20;55.80;;;;;;5093002;28;20093;-38
2022/05/03 09:42:16;;;;;;;3.38;2.80;;;16.30;55.80;;;;;;5094413;28;20111;-45
2022/05/03 09:44:54;;;;;;;4.50;3.47;;;16.30;55.60;;;;;;5092948;28;20032;-39
2022/05/03 09:47:23;;;;;;;4.70;3.00;;;16.30;55.60;;;;;;5094196;28;20047;-39
2022/05/03 09:49:49;;;;;;;2.80;2.60;;;16.40;55.50;;;;;;5094126;28;20020;-39
2022/05/03 09:52:30;;;;;;;3.78;2.85;;;16.50;55.40;;;;;;5094197;28;20016;-37
2022/05/03 09:55:03;;;;;;;3.65;3.33;;;16.60;55.30;;;;;;5094293;28;20041;-38
2022/05/03 09:57:31;;;;;;;5.43;2.97;;;16.70;55.20;;;;;;5093615;28;20054;-38
2022/05/03 09:59:58;;;;;;;5.78;4.20;;;16.80;55.30;;;;;;5094205;28;20047;-38
2022/05/03 10:02:25;;;;;;;6.00;4.13;;;16.90;55.30;;;;;;5093858;28;20024;-39
2022/05/03 10:04:53;;;;;;;6.28;4.10;;;16.90;55.40;;;;;;5093934;28;20020;-38
2022/05/03 10:07:20;;;;;;;4.13;3.15;;;17.00;55.50;;;;;;5093759;28;20023;-41
2022/05/03 10:09:46;;;;;;;5.20;3.47;;;17.00;55.40;;;;;;5093892;28;20476;-46
2022/05/03 10:12:13;;;;;;;4.50;4.10;;;17.10;55.30;;;;;;5094050;28;20185;-42
2022/05/03 10:14:41;;;;;;;6.45;4.68;;;17.20;55.40;;;;;;5093449;28;20020;-42
2022/05/03 10:22:53;;;;;;;6.03;4.22;;;17.30;55.20;;;;;;5093742;28;20067;-41
2022/05/03 10:25:46;;;;;;;4.88;3.75;;;17.30;55.10;;;;;;5093566;28;20059;-40
2022/05/03 10:28:11;;;;;;;4.45;3.25;;;17.30;55.20;;;;;;5093350;28;20016;-40
2022/05/03 10:30:40;;;;;;;5.50;3.63;;;17.40;55.20;;;;;;5093246;28;20054;-41
2022/05/03 10:33:20;;;;;;;6.60;4.10;;;17.40;55.10;;;;;;5093149;28;20020;-44
2022/05/03 10:35:51;;;;;;;6.70;3.90;;;17.50;55.70;;;;;;5093136;28;20368;-40
2022/05/03 10:38:43;;;;;;;6.88;3.92;;;17.40;55.10;;;;;;5093102;28;20058;-42
2022/05/03 10:41:10;;;;;;;4.95;4.03;;;17.50;55.20;;;;;;5093289;28;20054;-42
2022/05/03 10:43:38;;;;;;;5.72;5.05;;;17.50;55.20;;;;;;5093127;28;20132;-41
2022/05/03 10:46:18;;;;;;;4.97;4.15;;;17.60;55.20;;;;;;5092877;28;20165;-40
2022/05/03 10:49:02;;;;;;;6.55;4.38;;;17.60;55.20;;;;;;5092942;28;20443;-39
2022/05/03 10:51:28;;;;;;;4.43;3.60;;;17.60;55.10;;;;;;5093048;28;20089;-41
2022/05/03 10:54:00;;;;;;;4.07;3.10;;;17.60;55.10;;;;;;5092771;28;20028;-40
2022/05/03 10:56:26;;;;;;;4.50;3.20;;;17.60;55.10;;;;;;5092889;28;20085;-40
2022/05/03 10:59:16;;;;;;;6.22;3.50;;;17.50;55.10;;;;;;5093186;28;20028;-41
2022/05/03 11:01:56;;;;;;;4.00;3.47;;;17.60;55.10;;;;;;5092908;28;20095;-40
2022/05/03 11:04:24;;;;;;;3.78;3.38;;;17.60;54.90;;;;;;5092700;28;20024;-41
2022/05/03 11:06:50;;;;;;;3.83;3.40;;;17.70;54.90;;;;;;5093055;28;20172;-41
2022/05/03 11:09:30;;;;;;;4.05;3.25;;;17.80;55.00;;;;;;5093065;28;20511;-46
2022/05/03 11:12:04;;;;;;;4.20;2.97;;;17.90;54.60;;;;;;5092634;28;20039;-42
2022/05/03 11:14:30;;;;;;;3.00;2.70;;;18.10;54.20;;;;;;5092724;28;20103;-42
2022/05/03 11:17:11;;;;;;;3.22;2.92;;;18.20;54.20;;;;;;5092670;28;20471;-43
2022/05/03 11:19:49;;;;;;;3.38;2.85;;;18.30;53.70;;;;;;5092389;28;20012;-38
2022/05/03 11:22:35;;;;;;;2.92;2.67;;;18.30;53.20;;;;;;5092414;28;20024;-39
2022/05/03 11:25:12;;;;;;;2.95;2.45;;;18.40;53.00;;;;;;5091633;28;20471;-38
2022/05/03 11:27:39;;;;;;;2.80;2.40;;;18.50;52.80;;;;;;5092441;28;20467;-37
2022/05/03 11:30:11;;;;;;;3.08;2.38;;;18.60;52.60;;;;;;5092175;28;20024;-39
2022/05/03 11:32:38;;;;;;;3.60;2.33;;;18.70;52.30;;;;;;5092307;28;20035;-37
2022/05/03 11:35:15;;;;;;;2.28;2.10;;;18.80;52.00;;;;;;5092147;28;20064;-37
2022/05/03 11:37:49;;;;;;;4.28;2.47;;;18.80;51.80;;;;;;5092401;28;20351;-38
2022/05/03 11:40:17;;;;;;;2.72;2.42;;;18.70;51.60;;;;;;5092555;28;20474;-37
2022/05/03 11:42:44;;;;;;;5.00;2.50;;;18.60;51.80;;;;;;5091998;28;20479;-38
2022/05/03 11:45:12;;;;;;;3.38;3.08;;;18.60;52.00;;;;;;5092200;28;20024;-39
2022/05/03 11:47:41;;;;;;;5.20;3.20;;;18.60;52.30;;;;;;5092270;28;20487;-37
2022/05/03 11:50:07;;;;;;;5.00;3.53;;;18.60;52.50;;;;;;5091964;28;20020;-37
2022/05/03 11:58:03;;;;;;;4.03;2.97;;;18.80;52.60;;;;;;5091942;28;20089;-41
2022/05/03 12:00:28;;;;;;;3.88;3.47;;;19.00;52.50;;;;;;5092288;28;20012;-42
2022/05/03 12:03:00;;;;;;;3.85;3.40;;;19.20;52.30;;;;;;5092126;28;20467;-44
2022/05/03 12:05:26;;;;;;;3.45;3.05;;;19.20;51.90;;;;;;5092030;28;20028;-41
2022/05/03 12:07:52;;;;;;;4.53;2.92;;;19.20;52.00;;;;;;5092191;28;20032;-41
2022/05/03 12:10:19;;;;;;;3.33;3.03;;;19.10;52.00;;;;;;5092139;28;20020;-41
2022/05/03 12:13:05;;;;;;;3.40;3.10;;;19.00;52.00;;;;;;5092023;28;20024;-41
2022/05/03 12:15:32;;;;;;;3.58;2.83;;;18.90;52.20;;;;;;5092212;28;20029;-42
2022/05/03 12:18:01;;;;;;;3.78;3.03;;;18.70;52.30;;;;;;5092313;28;20106;-41
2022/05/03 12:20:40;;;;;;;4.30;3.15;;;18.70;52.40;;;;;;5092063;28;20383;-41
2022/05/03 12:23:20;;;;;;;4.70;3.95;;;18.50;52.60;;;;;;5092125;28;20468;-41
2022/05/03 12:25:53;;;;;;;4.00;3.40;;;18.40;52.90;;;;;;5092289;28;20020;-41
2022/05/03 12:28:19;;;;;;;;;;;18.30;53.30;;;;;;5092427;28;20020;-41
2022/05/03 12:30:55;;;;;;;4.43;3.40;;;18.10;53.40;;;;;;5092209;28;20006;-41
2022/05/03 12:33:21;;;;;;;5.07;4.00;;;18.00;54.30;;;;;;5091947;28;20023;-42
2022/05/03 12:35:47;;;;;;;4.72;3.92;;;17.90;53.90;;;;;;5092005;28;20475;-42
2022/05/03 12:38:14;;;;;;;7.47;3.95;;;17.80;54.10;;;;;;5095585;28;20028;-41
2022/05/03 12:40:59;;;;;;;11.75;3.90;;;17.60;54.20;;;;;;5095766;28;20047;-42
2022/05/03 12:43:26;;;;;;;6.18;3.60;;;17.60;54.50;;;;;;5095794;28;20107;-40
2022/05/03 12:46:00;;;;;;;6.00;3.80;;;17.50;54.70;;;;;;5095362;28;20100;-42
2022/05/03 12:48:27;;;;;;;6.97;4.40;;;17.50;54.80;;;;;;5095591;28;20043;-41
2022/05/03 12:50:55;;;;;;;5.13;4.03;;;17.40;54.90;;;;;;5095611;28;20024;-42
2022/05/03 12:53:29;;;;;;;4.00;3.60;;;17.30;55.00;;;;;;5095753;28;20020;-42
2022/05/03 12:55:56;;;;;;;4.80;3.50;;;17.30;55.10;;;;;;5095658;28;20024;-40
2022/05/03 12:58:22;;;;;;;5.70;4.28;;;17.30;55.30;;;;;;5095353;28;20119;-41
2022/05/03 13:00:57;;;;;;;7.93;4.45;;;17.20;55.40;;;;;;5095596;28;20028;-41
2022/05/03 13:03:24;;;;;;;11.15;7.25;;;17.10;56.20;;;;;;5095428;28;20021;-42
2022/05/03 13:05:50;;;;;;;13.43;7.78;;;17.00;56.40;;;;;;5095047;28;20024;-43
2022/05/03 13:08:17;;;;;;;14.48;9.38;;;16.80;57.00;;;;;;5095303;28;20027;-41
2022/05/03 13:10:43;;;;;;;21.23;12.80;;;16.80;58.60;;;;;;5095202;28;20107;-41
2022/05/03 13:13:09;;;;;;;30.75;14.75;;;16.50;59.60;;;;;;5095274;28;20370;-41
2022/05/03 13:15:35;;;;;;;24.42;13.20;;;16.30;60.80;;;;;;5095343;28;20012;-41
2022/05/03 13:18:00;;;;;;;23.00;12.85;;;16.10;61.60;;;;;;5094899;28;20059;-37
2022/05/03 13:20:29;;;;;;;21.67;13.00;;;15.90;61.90;;;;;;5094677;28;20371;-43
2022/05/03 13:22:55;;;;;;;20.17;12.20;;;15.80;62.90;;;;;;5094541;28;20032;-38
2022/05/03 13:25:21;;;;;;;23.70;12.98;;;15.70;63.20;;;;;;5094662;28;20032;-38
2022/05/03 13:27:48;;;;;;;24.73;15.52;;;15.70;63.80;;;;;;5094568;28;20020;-37
2022/05/03 13:30:14;;;;;;;24.92;13.98;;;15.60;64.10;;;;;;5094305;28;20012;-41
2022/05/03 13:32:40;;;;;;;24.77;13.55;;;15.50;64.40;;;;;;5094340;28;20067;-38
2022/05/03 13:35:07;;;;;;;22.73;13.48;;;15.40;64.90;;;;;;5094468;28;20028;-38
2022/05/03 13:40:29;;;;;;;24.98;13.75;;;15.30;65.10;;;;;;5094887;28;20463;-38
2022/05/03 13:43:00;;;;;;;24.83;14.20;;;15.30;65.60;;;;;;5094323;28;20024;-36
2022/05/03 13:45:26;;;;;;;25.13;13.65;;;15.20;65.50;;;;;;5094112;28;20032;-37
2022/05/03 13:47:52;;;;;;;21.20;12.85;;;15.20;65.70;;;;;;5093068;28;20047;-36
2022/05/03 13:50:18;;;;;;;22.08;13.00;;;15.20;65.80;;;;;;5094001;28;20058;-39